Time;durP1;ratioP1;P1;durP2;ratioP2;P2;SDS_P1;SDS_P2;PMS_P1;PMS_P2;Temp;Humidity;BMP_temperature;BMP_pressure;BME280_temperature;BME280_humidity;BME280_pressure;Samples;Min_cycle;Max_cycle;Signal;HPM_P1;HPM_P2
2023/07/01 00:00:36;;;;;;;;;;;22.00;67.20;;;;;;5010907;28;92159;-42
2023/07/01 00:03:03;;;;;;;;;;;21.90;67.80;;;;;;5012407;28;92511;-43
2023/07/01 00:05:29;;;;;;;;;;;21.90;67.20;;;;;;5010388;28;93752;-44
2023/07/01 00:07:55;;;;;;;;;;;21.90;67.30;;;;;;5012044;28;92545;-43
2023/07/01 00:10:20;;;;;;;;;;;21.80;67.20;;;;;;5011687;28;92966;-43
2023/07/01 00:12:46;;;;;;;;;;;21.80;67.30;;;;;;5014229;28;92668;-43
2023/07/01 00:15:11;;;;;;;;;;;21.80;67.20;;;;;;5009585;28;92472;-43
2023/07/01 00:17:37;;;;;;;;;;;21.80;67.20;;;;;;5011765;28;94549;-44
2023/07/01 00:20:03;;;;;;;;;;;21.80;67.30;;;;;;5011097;28;92431;-43
2023/07/01 00:22:28;;;;;;;;;;;21.80;67.20;;;;;;5012833;28;93803;-43
2023/07/01 00:24:54;;;;;;;;;;;21.70;67.80;;;;;;5010122;28;93041;-43
2023/07/01 00:27:19;;;;;;;;;;;21.70;67.30;;;;;;5013068;28;92259;-43
2023/07/01 00:29:45;;;;;;;;;;;21.70;67.20;;;;;;5008435;28;93121;-43
2023/07/01 00:32:10;;;;;;;;;;;21.70;67.30;;;;;;5009062;28;93075;-43
2023/07/01 00:34:36;;;;;;;;;;;21.70;67.20;;;;;;5016358;28;92130;-43
2023/07/01 00:37:02;;;;;;;;;;;21.60;67.30;;;;;;5009312;28;93111;-43
2023/07/01 00:39:27;;;;;;;;;;;21.70;67.30;;;;;;5013037;28;92220;-43
2023/07/01 00:41:56;;;;;;;;;;;21.60;67.30;;;;;;5009628;28;92383;-43
2023/07/01 00:44:21;;;;;;;;;;;21.60;67.40;;;;;;5008026;28;93175;-43
2023/07/01 00:46:47;;;;;;;;;;;21.60;67.30;;;;;;5013553;28;92357;-43
2023/07/01 00:49:13;;;;;;;;;;;21.60;67.40;;;;;;5010260;28;92026;-43
2023/07/01 00:51:38;;;;;;;;;;;21.60;67.30;;;;;;5011741;28;93266;-44
2023/07/01 00:54:04;;;;;;;;;;;21.50;67.50;;;;;;5009470;28;93129;-43
2023/07/01 00:56:30;;;;;;;;;;;21.60;67.50;;;;;;5014293;28;93513;-46
2023/07/01 00:58:55;;;;;;;;;;;21.50;67.40;;;;;;5010699;28;92130;-43
2023/07/01 01:01:24;;;;;;;;;;;21.50;67.30;;;;;;5008533;28;92261;-43
2023/07/01 01:03:59;;;;;;;;;;;21.50;67.20;;;;;;5010996;28;93149;-43
2023/07/01 01:06:33;;;;;;;;;;;21.50;67.20;;;;;;5009395;28;92051;-45
2023/07/01 01:09:03;;;;;;;;;;;21.40;67.20;;;;;;5005055;28;93943;-46
2023/07/01 01:11:32;;;;;;;;;;;21.40;67.30;;;;;;5012122;28;93817;-44
2023/07/01 01:13:59;;;;;;;;;;;21.40;67.30;;;;;;5010058;28;92623;-43
2023/07/01 01:16:25;;;;;;;;;;;21.40;67.30;;;;;;5010148;28;93647;-43
2023/07/01 01:18:51;;;;;;;;;;;21.40;67.30;;;;;;5013550;28;94012;-43
2023/07/01 01:21:17;;;;;;;;;;;21.40;67.30;;;;;;5009692;28;93251;-44
2023/07/01 01:23:45;;;;;;;;;;;21.40;67.20;;;;;;5011508;28;92947;-43
2023/07/01 01:26:12;;;;;;;;;;;21.40;67.30;;;;;;5009259;28;92113;-43
2023/07/01 01:28:38;;;;;;;;;;;21.40;67.20;;;;;;5012014;28;92422;-43
2023/07/01 01:31:04;;;;;;;;;;;21.30;67.10;;;;;;5009228;28;93466;-43
2023/07/01 01:33:30;;;;;;;;;;;21.30;67.20;;;;;;5008540;28;92248;-43
2023/07/01 01:36:01;;;;;;;;;;;21.30;67.20;;;;;;5012905;28;92565;-43
2023/07/01 01:38:30;;;;;;;;;;;21.20;67.20;;;;;;5008982;28;92243;-44
2023/07/01 01:40:58;;;;;;;;;;;21.30;67.30;;;;;;5013947;28;92141;-45
2023/07/01 01:43:27;;;;;;;;;;;21.20;67.20;;;;;;5008606;28;93160;-44
2023/07/01 01:45:53;;;;;;;;;;;21.20;67.50;;;;;;5008749;28;92310;-44
2023/07/01 01:48:18;;;;;;;;;;;21.20;67.30;;;;;;5010715;28;93839;-43
2023/07/01 01:50:48;;;;;;;;;;;21.20;67.30;;;;;;5009140;28;92002;-43
2023/07/01 01:53:14;;;;;;;;;;;21.20;67.20;;;;;;5010664;28;92209;-43
2023/07/01 01:55:41;;;;;;;;;;;21.20;67.20;;;;;;5009719;28;92416;-43
2023/07/01 01:58:06;;;;;;;;;;;21.20;67.20;;;;;;5010250;28;94820;-44
2023/07/01 02:00:33;;;;;;;;;;;21.10;67.20;;;;;;5008552;28;91462;-44
2023/07/01 02:02:58;;;;;;;;;;;21.10;67.10;;;;;;5011586;28;93212;-43
2023/07/01 02:05:24;;;;;;;;;;;21.10;67.10;;;;;;5011404;28;92918;-43
2023/07/01 02:07:49;;;;;;;;;;;21.10;67.10;;;;;;5008119;28;93118;-43
2023/07/01 02:10:15;;;;;;;;;;;21.10;67.10;;;;;;5011291;28;93476;-44
2023/07/01 02:12:40;;;;;;;;;;;21.10;67.00;;;;;;5008064;28;92169;-42
2023/07/01 02:15:06;;;;;;;;;;;21.10;67.10;;;;;;5007287;28;92587;-43
2023/07/01 02:17:32;;;;;;;;;;;21.10;67.00;;;;;;5011197;28;94445;-42
2023/07/01 02:19:57;;;;;;;;;;;21.10;67.00;;;;;;5008411;28;92257;-44
2023/07/01 02:22:23;;;;;;;;;;;21.10;67.10;;;;;;5013866;28;92751;-46
2023/07/01 02:24:48;;;;;;;;;;;21.00;67.00;;;;;;5009197;28;91443;-43
2023/07/01 02:27:14;;;;;;;;;;;21.10;67.10;;;;;;5010744;28;92100;-43
2023/07/01 02:29:39;;;;;;;;;;;21.00;67.00;;;;;;5008544;28;92277;-43
2023/07/01 02:32:05;;;;;;;;;;;21.00;66.90;;;;;;5006805;28;94100;-43
2023/07/01 02:34:31;;;;;;;;;;;21.00;67.10;;;;;;5010004;28;93371;-46
2023/07/01 02:36:56;;;;;;;;;;;21.00;67.00;;;;;;5008766;28;93467;-44
2023/07/01 02:39:22;;;;;;;;;;;21.00;67.00;;;;;;5009607;28;92209;-46
2023/07/01 02:41:47;;;;;;;;;;;21.00;67.10;;;;;;5009418;28;92196;-45
2023/07/01 02:44:13;;;;;;;;;;;21.00;67.00;;;;;;5011747;28;93067;-43
2023/07/01 02:46:38;;;;;;;;;;;20.90;67.10;;;;;;5003071;28;92176;-43
2023/07/01 02:49:04;;;;;;;;;;;20.90;67.00;;;;;;5010343;28;92554;-43
2023/07/01 02:51:30;;;;;;;;;;;20.90;67.10;;;;;;5007855;28;92211;-43
2023/07/01 02:53:55;;;;;;;;;;;20.90;67.10;;;;;;5010730;28;92529;-46
2023/07/01 02:56:21;;;;;;;;;;;20.90;67.60;;;;;;5006584;28;94305;-46
2023/07/01 02:58:46;;;;;;;;;;;20.90;67.10;;;;;;5011220;28;92199;-48
2023/07/01 03:01:13;;;;;;;;;;;20.80;67.00;;;;;;5006534;28;92604;-46
2023/07/01 03:03:39;;;;;;;;;;;20.80;66.90;;;;;;5002829;28;94595;-43
2023/07/01 03:06:05;;;;;;;;;;;20.80;67.00;;;;;;5006314;28;92159;-49
2023/07/01 03:08:30;;;;;;;;;;;20.80;67.00;;;;;;5010264;28;93249;-46
2023/07/01 03:10:56;;;;;;;;;;;20.80;67.00;;;;;;5007733;28;92285;-47
2023/07/01 03:13:21;;;;;;;;;;;20.80;66.90;;;;;;5010819;28;92503;-44
2023/07/01 03:15:47;;;;;;;;;;;20.80;66.90;;;;;;5007161;28;93309;-45
2023/07/01 03:18:12;;;;;;;;;;;20.80;67.00;;;;;;5008115;28;92410;-46
2023/07/01 03:20:38;;;;;;;;;;;20.70;66.80;;;;;;5009079;28;93108;-46
2023/07/01 03:23:03;;;;;;;;;;;20.70;66.90;;;;;;5007934;28;93259;-46
2023/07/01 03:25:29;;;;;;;;;;;20.70;67.00;;;;;;5009094;28;92178;-45
2023/07/01 03:27:54;;;;;;;;;;;20.70;66.90;;;;;;5011546;28;92483;-48
2023/07/01 03:30:22;;;;;;;;;;;20.70;67.00;;;;;;5007596;28;92655;-47
2023/07/01 03:32:47;;;;;;;;;;;20.60;66.90;;;;;;5007446;28;92341;-47
2023/07/01 03:35:14;;;;;;;;;;;20.60;66.90;;;;;;5007655;28;92058;-48
2023/07/01 03:37:40;;;;;;;;;;;20.60;66.90;;;;;;5009566;28;91476;-46
2023/07/01 03:40:10;;;;;;;;;;;20.60;67.00;;;;;;5007966;28;92138;-49
2023/07/01 03:42:36;;;;;;;;;;;20.60;67.00;;;;;;5008315;28;93104;-47
2023/07/01 03:45:02;;;;;;;;;;;20.60;66.90;;;;;;5007543;28;93121;-43
2023/07/01 03:47:27;;;;;;;;;;;20.60;66.90;;;;;;5008195;28;94990;-44
2023/07/01 03:49:53;;;;;;;;;;;20.60;66.80;;;;;;5010274;28;92259;-44
2023/07/01 03:52:18;;;;;;;;;;;20.60;67.00;;;;;;5009400;28;94293;-44
2023/07/01 03:54:44;;;;;;;;;;;20.60;67.00;;;;;;5006854;28;93149;-42
2023/07/01 03:57:09;;;;;;;;;;;20.50;67.00;;;;;;5009924;28;92322;-44
2023/07/01 03:59:35;;;;;;;;;;;20.50;66.90;;;;;;5007067;28;92309;-45
2023/07/01 04:02:00;;;;;;;;;;;20.50;67.00;;;;;;5005698;28;92433;-43
2023/07/01 04:04:26;;;;;;;;;;;20.50;67.00;;;;;;5010000;28;92412;-43
2023/07/01 04:06:54;;;;;;;;;;;20.50;67.00;;;;;;5006505;28;92368;-43
2023/07/01 04:09:20;;;;;;;;;;;20.50;67.10;;;;;;5001195;28;95499;-44
2023/07/01 04:11:46;;;;;;;;;;;20.50;67.00;;;;;;5012754;28;92041;-43
2023/07/01 04:14:15;;;;;;;;;;;20.50;66.90;;;;;;5006079;28;93183;-44
2023/07/01 04:16:42;;;;;;;;;;;20.50;67.00;;;;;;5008344;28;92209;-43
2023/07/01 04:19:08;;;;;;;;;;;20.40;67.00;;;;;;5002517;28;92429;-43
2023/07/01 04:21:33;;;;;;;;;;;20.40;67.00;;;;;;5008011;28;94928;-44
2023/07/01 04:24:01;;;;;;;;;;;20.40;67.10;;;;;;5006684;28;92184;-43
2023/07/01 04:26:27;;;;;;;;;;;20.40;67.00;;;;;;5010187;28;92444;-43
2023/07/01 04:28:52;;;;;;;;;;;20.40;67.10;;;;;;5005856;28;94190;-43
2023/07/01 04:31:18;;;;;;;;;;;20.40;67.00;;;;;;5008623;28;92272;-43
2023/07/01 04:33:44;;;;;;;;;;;20.40;67.00;;;;;;5007635;28;95453;-43
2023/07/01 04:36:10;;;;;;;;;;;20.40;67.00;;;;;;5007103;28;92040;-43
2023/07/01 04:38:35;;;;;;;;;;;20.40;67.00;;;;;;5008615;28;93645;-44
2023/07/01 04:41:01;;;;;;;;;;;20.40;67.00;;;;;;5006568;28;92692;-44
2023/07/01 04:43:28;;;;;;;;;;;20.40;67.00;;;;;;5008238;28;92501;-43
2023/07/01 04:45:54;;;;;;;;;;;20.40;67.00;;;;;;5009665;28;93758;-42
2023/07/01 04:48:19;;;;;;;;;;;20.40;67.00;;;;;;5010323;28;92313;-42
2023/07/01 04:50:45;;;;;;;;;;;20.30;67.10;;;;;;5012144;28;91480;-43
2023/07/01 04:53:10;;;;;;;;;;;20.30;67.10;;;;;;5013739;28;92109;-42
2023/07/01 04:55:36;;;;;;;;;;;20.30;67.10;;;;;;5011759;28;92176;-43
2023/07/01 04:58:01;;;;;;;;;;;20.40;67.20;;;;;;5009862;28;93114;-43
2023/07/01 05:00:27;;;;;;;;;;;20.30;67.10;;;;;;5011039;28;93287;-43
2023/07/01 05:02:53;;;;;;;;;;;20.40;67.10;;;;;;5009661;28;92163;-44
2023/07/01 05:05:18;;;;;;;;;;;20.40;67.10;;;;;;5008947;28;92496;-42
2023/07/01 05:07:44;;;;;;;;;;;20.30;67.10;;;;;;5011484;28;94340;-43
2023/07/01 05:10:09;;;;;;;;;;;20.40;67.10;;;;;;5009185;28;92181;-44
2023/07/01 05:12:35;;;;;;;;;;;20.30;67.10;;;;;;5012945;28;92536;-43
2023/07/01 05:15:00;;;;;;;;;;;20.40;67.20;;;;;;5011921;28;92529;-43
2023/07/01 05:17:26;;;;;;;;;;;20.40;67.20;;;;;;5008854;28;93495;-43
2023/07/01 05:19:51;;;;;;;;;;;20.40;67.40;;;;;;5011755;28;93217;-45
2023/07/01 05:22:17;;;;;;;;;;;20.40;67.30;;;;;;5008942;28;93926;-43
2023/07/01 05:24:42;;;;;;;;;;;20.40;67.30;;;;;;5011924;28;93384;-44
2023/07/01 05:27:08;;;;;;;;;;;20.40;67.30;;;;;;5009453;28;93411;-43
2023/07/01 05:29:33;;;;;;;;;;;20.40;67.30;;;;;;5011202;28;92208;-43
2023/07/01 05:31:59;;;;;;;;;;;20.40;67.30;;;;;;5008080;28;92447;-43
2023/07/01 05:34:24;;;;;;;;;;;20.40;67.30;;;;;;5009888;28;92949;-44
2023/07/01 05:36:50;;;;;;;;;;;20.40;67.40;;;;;;5013226;28;92148;-44
2023/07/01 05:39:17;;;;;;;;;;;20.40;67.40;;;;;;5010827;28;92259;-42
2023/07/01 05:41:42;;;;;;;;;;;20.40;67.40;;;;;;5009653;28;92190;-43
2023/07/01 05:44:08;;;;;;;;;;;20.40;67.40;;;;;;5011060;28;92176;-43
2023/07/01 05:46:33;;;;;;;;;;;20.40;67.40;;;;;;5006823;28;94412;-45
2023/07/01 05:48:59;;;;;;;;;;;20.40;67.50;;;;;;5009195;28;92166;-42
2023/07/01 05:51:25;;;;;;;;;;;20.40;67.50;;;;;;5011544;28;92495;-43
2023/07/01 05:53:50;;;;;;;;;;;20.40;67.50;;;;;;5008378;28;92202;-43
2023/07/01 05:56:16;;;;;;;;;;;20.40;67.50;;;;;;5011411;28;92206;-43
2023/07/01 05:58:41;;;;;;;;;;;20.40;67.50;;;;;;5011404;28;93177;-44
2023/07/01 06:01:07;;;;;;;;;;;20.40;67.50;;;;;;5012116;28;92176;-44
2023/07/01 06:03:33;;;;;;;;;;;20.40;67.60;;;;;;5003909;28;93561;-43
2023/07/01 06:05:58;;;;;;;;;;;20.40;67.60;;;;;;5008088;28;93162;-43
2023/07/01 06:08:24;;;;;;;;;;;20.40;67.60;;;;;;5011536;28;92231;-43
2023/07/01 06:10:49;;;;;;;;;;;20.40;67.50;;;;;;5008426;28;93005;-42
2023/07/01 06:13:15;;;;;;;;;;;20.40;67.60;;;;;;5010348;28;93110;-43
2023/07/01 06:15:40;;;;;;;;;;;20.40;67.60;;;;;;5008969;28;92090;-42
2023/07/01 06:18:06;;;;;;;;;;;20.40;67.60;;;;;;5012445;28;92180;-42
2023/07/01 06:20:31;;;;;;;;;;;20.40;67.60;;;;;;5009574;28;92146;-43
2023/07/01 06:22:57;;;;;;;;;;;20.40;67.60;;;;;;5009961;28;92537;-43
2023/07/01 06:25:22;;;;;;;;;;;20.50;67.60;;;;;;5009348;28;93079;-46
2023/07/01 06:27:48;;;;;;;;;;;20.40;67.70;;;;;;5009974;28;91439;-43
2023/07/01 06:30:13;;;;;;;;;;;20.40;67.70;;;;;;5009995;28;92988;-43
2023/07/01 06:32:39;;;;;;;;;;;20.40;67.80;;;;;;5008421;28;93456;-43
2023/07/01 06:35:04;;;;;;;;;;;20.40;67.70;;;;;;5008145;28;93779;-43
2023/07/01 06:37:30;;;;;;;;;;;20.40;67.80;;;;;;5010644;28;93414;-43
2023/07/01 06:39:55;;;;;;;;;;;20.40;67.70;;;;;;5010397;28;93208;-43
2023/07/01 06:42:21;;;;;;;;;;;20.40;67.80;;;;;;5011296;28;92598;-43
2023/07/01 06:44:46;;;;;;;;;;;20.40;67.80;;;;;;5005648;28;95665;-44
2023/07/01 06:47:12;;;;;;;;;;;20.50;67.80;;;;;;5008256;28;92585;-43
2023/07/01 06:49:37;;;;;;;;;;;20.40;67.80;;;;;;5011052;28;92439;-43
2023/07/01 06:52:03;;;;;;;;;;;20.40;67.80;;;;;;5007602;28;92235;-43
2023/07/01 06:54:28;;;;;;;;;;;20.40;67.80;;;;;;5010770;28;92875;-44
2023/07/01 06:56:54;;;;;;;;;;;20.40;67.90;;;;;;5008303;28;92336;-44
2023/07/01 06:59:20;;;;;;;;;;;20.40;67.90;;;;;;5009057;28;94317;-45
2023/07/01 07:01:45;;;;;;;;;;;20.50;67.90;;;;;;5011666;28;92259;-45
2023/07/01 07:04:11;;;;;;;;;;;20.40;67.90;;;;;;5006634;28;93377;-44
2023/07/01 07:06:36;;;;;;;;;;;20.40;68.00;;;;;;5008869;28;92062;-45
2023/07/01 07:09:03;;;;;;;;;;;20.40;68.00;;;;;;5008247;28;92661;-45
2023/07/01 07:11:29;;;;;;;;;;;20.40;68.00;;;;;;5008346;28;93034;-43
2023/07/01 07:13:54;;;;;;;;;;;20.40;68.10;;;;;;5008743;28;92684;-43
2023/07/01 07:16:20;;;;;;;;;;;20.40;68.10;;;;;;5008744;28;92637;-43
2023/07/01 07:18:45;;;;;;;;;;;20.40;68.10;;;;;;5004005;28;92442;-46
2023/07/01 07:21:11;;;;;;;;;;;20.40;68.10;;;;;;5008046;28;92189;-45
2023/07/01 07:23:36;;;;;;;;;;;20.40;68.10;;;;;;5011756;28;93465;-45
2023/07/01 07:26:02;;;;;;;;;;;20.40;68.10;;;;;;5007793;28;92143;-47
2023/07/01 07:28:27;;;;;;;;;;;20.50;68.20;;;;;;5010230;28;92427;-46
2023/07/01 07:30:53;;;;;;;;;;;20.40;68.20;;;;;;5006347;28;93241;-48
2023/07/01 07:33:18;;;;;;;;;;;20.40;68.30;;;;;;5009831;28;92412;-46
2023/07/01 07:35:44;;;;;;;;;;;20.40;68.20;;;;;;5006582;28;94026;-47
2023/07/01 07:38:09;;;;;;;;;;;20.40;68.20;;;;;;5010023;28;93253;-49
2023/07/01 07:40:35;;;;;;;;;;;20.40;68.30;;;;;;5007208;28;91465;-44
2023/07/01 07:43:07;;;;;;;;;;;20.40;68.30;;;;;;5009857;28;92020;-47
2023/07/01 07:45:33;;;;;;;;;;;20.50;68.30;;;;;;5005338;28;93001;-46
2023/07/01 07:47:58;;;;;;;;;;;20.50;68.30;;;;;;5002190;28;93434;-44
2023/07/01 07:50:24;;;;;;;;;;;20.50;68.30;;;;;;5009484;28;93193;-47
2023/07/01 07:52:49;;;;;;;;;;;20.50;68.30;;;;;;5007259;28;92255;-46
2023/07/01 07:55:15;;;;;;;;;;;20.50;68.30;;;;;;5009682;28;92552;-45
2023/07/01 07:57:40;;;;;;;;;;;20.50;68.30;;;;;;5007018;28;93404;-47
2023/07/01 08:00:06;;;;;;;;;;;20.50;68.30;;;;;;5008822;28;92166;-47
2023/07/01 08:02:32;;;;;;;;;;;20.50;68.30;;;;;;5007733;28;92431;-43
2023/07/01 08:04:57;;;;;;;;;;;20.50;69.00;;;;;;5008151;28;92878;-42
2023/07/01 08:07:23;;;;;;;;;;;20.50;68.30;;;;;;5011445;28;92665;-44
2023/07/01 08:09:48;;;;;;;;;;;20.60;68.40;;;;;;5007668;28;93046;-44
2023/07/01 08:12:14;;;;;;;;;;;20.50;68.30;;;;;;5007639;28;93080;-45
2023/07/01 08:14:39;;;;;;;;;;;20.60;68.40;;;;;;5007700;28;93415;-43
2023/07/01 08:17:05;;;;;;;;;;;20.60;68.30;;;;;;5008492;28;92978;-43
2023/07/01 08:19:30;;;;;;;;;;;20.60;68.40;;;;;;5008933;28;92268;-43
2023/07/01 08:21:56;;;;;;;;;;;20.60;68.90;;;;;;5010708;28;92486;-43
2023/07/01 08:24:21;;;;;;;;;;;20.60;68.30;;;;;;5012486;28;93290;-43
2023/07/01 08:26:47;;;;;;;;;;;20.60;68.30;;;;;;5013159;28;92578;-43
2023/07/01 08:29:12;;;;;;;;;;;20.60;68.30;;;;;;5013409;28;92457;-42
2023/07/01 08:31:40;;;;;;;;;;;20.60;68.40;;;;;;5009240;28;92210;-43
2023/07/01 08:34:05;;;;;;;;;;;20.60;68.40;;;;;;5005055;28;93614;-43
2023/07/01 08:36:31;;;;;;;;;;;20.60;68.40;;;;;;5004475;28;93882;-42
2023/07/01 08:38:56;;;;;;;;;;;20.70;68.40;;;;;;5013185;28;92276;-45
2023/07/01 08:41:24;;;;;;;;;;;20.60;68.40;;;;;;5009673;28;92196;-42
2023/07/01 08:43:51;;;;;;;;;;;20.70;68.40;;;;;;5012396;28;93344;-43
2023/07/01 08:46:19;;;;;;;;;;;20.70;68.40;;;;;;5009734;28;92251;-42
2023/07/01 08:48:45;;;;;;;;;;;20.70;68.40;;;;;;5014692;28;93794;-43
2023/07/01 08:51:10;;;;;;;;;;;20.70;68.40;;;;;;5009755;28;92181;-44
2023/07/01 08:53:36;;;;;;;;;;;20.70;68.40;;;;;;5012896;28;92414;-45
2023/07/01 08:56:02;;;;;;;;;;;20.70;69.00;;;;;;5009374;28;92310;-43
2023/07/01 08:58:29;;;;;;;;;;;20.70;68.40;;;;;;5011798;28;92525;-47
2023/07/01 09:00:55;;;;;;;;;;;20.80;68.50;;;;;;5008721;28;93081;-46
2023/07/01 09:03:21;;;;;;;;;;;20.80;68.40;;;;;;5007155;28;94569;-43
2023/07/01 09:05:47;;;;;;;;;;;20.80;68.40;;;;;;5011167;28;92139;-43
2023/07/01 09:08:12;;;;;;;;;;;20.80;68.40;;;;;;5010408;28;92526;-43
2023/07/01 09:10:38;;;;;;;;;;;20.80;69.10;;;;;;5013810;28;93126;-42
2023/07/01 09:13:10;;;;;;;;;;;20.80;68.40;;;;;;5010674;28;92734;-44
2023/07/01 09:15:54;;;;;;;;;;;20.90;68.50;;;;;;5011101;28;93955;-42
2023/07/01 09:18:19;;;;;;;;;;;20.80;68.50;;;;;;5005867;28;91840;-43
2023/07/01 09:20:45;;;;;;;;;;;20.90;68.60;;;;;;5009459;28;93051;-42
2023/07/01 09:23:10;;;;;;;;;;;20.90;68.50;;;;;;5011899;28;93082;-44
2023/07/01 09:25:36;;;;;;;;;;;20.90;68.50;;;;;;5008291;28;93122;-43
2023/07/01 09:28:01;;;;;;;;;;;20.90;68.60;;;;;;5012422;28;93396;-45
2023/07/01 09:30:28;;;;;;;;;;;20.90;68.50;;;;;;5007401;28;93310;-43
2023/07/01 09:33:10;;;;;;;;;;;21.00;68.60;;;;;;5015303;28;92202;-42
2023/07/01 09:35:57;;;;;;;;;;;21.00;68.60;;;;;;5006787;28;94594;-43
2023/07/01 09:38:23;;;;;;;;;;;21.00;68.50;;;;;;5005470;28;92092;-46
2023/07/01 09:40:49;;;;;;;;;;;21.00;68.60;;;;;;5011264;28;94188;-44
2023/07/01 09:43:15;;;;;;;;;;;21.00;68.60;;;;;;5008870;28;92341;-44
2023/07/01 09:46:08;;;;;;;;;;;21.00;68.50;;;;;;5011103;28;92200;-44
2023/07/01 09:48:33;;;;;;;;;;;21.00;68.50;;;;;;5008860;28;92369;-46
2023/07/01 09:51:02;;;;;;;;;;;21.00;68.60;;;;;;5010559;28;94086;-43
2023/07/01 09:53:29;;;;;;;;;;;21.10;68.60;;;;;;5008447;28;92239;-42
2023/07/01 09:55:55;;;;;;;;;;;21.10;68.70;;;;;;5014662;28;92649;-44
2023/07/01 09:58:21;;;;;;;;;;;21.10;68.60;;;;;;5008812;28;92699;-44
2023/07/01 10:00:47;;;;;;;;;;;21.10;68.60;;;;;;5011301;28;93938;-43
2023/07/01 10:03:12;;;;;;;;;;;21.10;68.60;;;;;;5008317;28;94255;-43
2023/07/01 10:05:38;;;;;;;;;;;21.10;68.60;;;;;;5009130;28;92161;-43
2023/07/01 10:08:05;;;;;;;;;;;21.20;68.60;;;;;;5011579;28;92409;-43
2023/07/01 10:10:31;;;;;;;;;;;21.20;68.70;;;;;;5008673;28;93045;-43
2023/07/01 10:12:58;;;;;;;;;;;21.20;68.60;;;;;;5010737;28;92207;-43
2023/07/01 10:15:24;;;;;;;;;;;21.20;68.60;;;;;;5008782;28;93008;-43
2023/07/01 10:17:51;;;;;;;;;;;21.30;68.60;;;;;;5012998;28;93132;-43
2023/07/01 10:20:30;;;;;;;;;;;21.30;68.60;;;;;;5007559;28;94198;-43
2023/07/01 10:22:56;;;;;;;;;;;21.30;68.60;;;;;;5003519;28;93482;-43
2023/07/01 10:25:32;;;;;;;;;;;21.30;68.60;;;;;;5003918;28;92344;-43
2023/07/01 10:27:59;;;;;;;;;;;21.30;68.60;;;;;;5006224;28;92006;-43
2023/07/01 10:30:44;;;;;;;;;;;21.30;68.50;;;;;;5009701;28;94843;-44
2023/07/01 10:33:35;;;;;;;;;;;21.40;68.50;;;;;;5006871;28;94186;-44
2023/07/01 10:36:01;;;;;;;;;;;21.40;68.60;;;;;;5006192;28;93369;-46
2023/07/01 10:38:26;;;;;;;;;;;21.40;68.60;;;;;;5012688;28;93592;-43
2023/07/01 10:40:52;;;;;;;;;;;21.40;68.60;;;;;;5008135;28;93082;-43
2023/07/01 10:43:18;;;;;;;;;;;21.40;68.10;;;;;;5008889;28;94869;-42
2023/07/01 10:45:43;;;;;;;;;;;21.50;68.60;;;;;;5009613;28;92158;-43
2023/07/01 10:48:13;;;;;;;;;;;21.50;68.60;;;;;;5009582;28;92420;-43
2023/07/01 10:50:58;;;;;;;;;;;21.50;68.60;;;;;;5004575;28;96147;-42
2023/07/01 10:53:23;;;;;;;;;;;21.50;68.60;;;;;;5004693;28;92279;-43
2023/07/01 10:55:49;;;;;;;;;;;21.50;68.60;;;;;;5010739;28;92422;-44
2023/07/01 10:58:26;;;;;;;;;;;21.50;68.50;;;;;;5007295;28;93636;-44
2023/07/01 11:00:51;;;;;;;;;;;21.60;68.50;;;;;;5012646;28;92047;-42
2023/07/01 11:03:42;;;;;;;;;;;21.60;68.60;;;;;;5008046;28;93030;-42
2023/07/01 11:06:10;;;;;;;;;;;21.60;68.90;;;;;;5002553;28;95128;-43
2023/07/01 11:08:44;;;;;;;;;;;21.60;68.50;;;;;;5007887;28;93309;-45
2023/07/01 11:11:10;;;;;;;;;;;21.60;68.50;;;;;;5009050;28;93236;-44
2023/07/01 11:13:35;;;;;;;;;;;21.70;68.50;;;;;;5008642;28;92142;-42
2023/07/01 11:16:07;;;;;;;;;;;21.70;68.50;;;;;;5009769;28;92442;-42
2023/07/01 11:18:43;;;;;;;;;;;21.70;68.50;;;;;;5008379;28;93271;-44
2023/07/01 11:21:10;;;;;;;;;;;21.70;68.50;;;;;;5007068;28;92305;-43
2023/07/01 11:23:36;;;;;;;;;;;21.80;68.50;;;;;;5013175;28;92383;-44
2023/07/01 11:26:01;;;;;;;;;;;21.80;68.50;;;;;;5007905;28;92530;-42
2023/07/01 11:28:30;;;;;;;;;;;21.80;68.50;;;;;;5009811;28;92389;-43
2023/07/01 11:31:07;;;;;;;;;;;21.80;68.50;;;;;;5006499;28;94411;-44
2023/07/01 11:33:32;;;;;;;;;;;21.90;68.50;;;;;;5003691;28;92146;-47
2023/07/01 11:35:58;;;;;;;;;;;21.90;68.40;;;;;;5009942;28;93060;-44
2023/07/01 11:38:27;;;;;;;;;;;21.90;68.50;;;;;;5006250;28;93138;-44
2023/07/01 11:40:53;;;;;;;;;;;21.90;68.40;;;;;;5001847;28;92162;-44
2023/07/01 11:43:18;;;;;;;;;;;21.90;68.40;;;;;;5002833;28;92362;-47
2023/07/01 11:45:46;;;;;;;;;;;21.90;68.40;;;;;;5012376;28;94531;-46
2023/07/01 11:48:11;;;;;;;;;;;22.00;68.40;;;;;;5006550;28;93804;-45
2023/07/01 11:50:57;;;;;;;;;;;22.00;68.40;;;;;;5006374;28;94001;-47
2023/07/01 11:53:24;;;;;;;;;;;22.00;68.40;;;;;;5007489;28;92286;-44
2023/07/01 11:55:50;;;;;;;;;;;22.00;68.40;;;;;;5014128;28;93071;-49
2023/07/01 11:58:31;;;;;;;;;;;22.10;68.50;;;;;;5014550;28;93192;-45
2023/07/01 12:00:57;;;;;;;;;;;22.10;68.40;;;;;;5013154;28;92198;-47
2023/07/01 12:03:23;;;;;;;;;;;22.10;68.50;;;;;;5016929;28;92467;-44
2023/07/01 12:05:49;;;;;;;;;;;22.20;68.40;;;;;;5012439;28;93059;-46
2023/07/01 12:08:14;;;;;;;;;;;22.20;68.40;;;;;;5019414;28;92345;-49
2023/07/01 12:10:40;;;;;;;;;;;22.20;68.40;;;;;;5013822;28;93228;-47
2023/07/01 12:13:06;;;;;;;;;;;22.20;68.30;;;;;;5016515;28;91365;-45
2023/07/01 12:15:32;;;;;;;;;;;22.20;68.30;;;;;;5014120;28;92957;-46
2023/07/01 12:18:16;;;;;;;;;;;22.30;68.30;;;;;;5015061;28;94631;-49
2023/07/01 12:20:42;;;;;;;;;;;22.20;68.20;;;;;;5009085;28;93519;-46
2023/07/01 12:23:07;;;;;;;;;;;22.30;68.30;;;;;;5013655;28;93460;-44
2023/07/01 12:25:33;;;;;;;;;;;22.30;68.80;;;;;;5015873;28;93058;-43
2023/07/01 12:27:58;;;;;;;;;;;22.30;68.30;;;;;;5012610;28;92151;-43
2023/07/01 12:30:24;;;;;;;;;;;22.40;68.30;;;;;;5019270;28;93820;-42
2023/07/01 12:32:50;;;;;;;;;;;22.40;68.30;;;;;;5008694;28;92204;-43
2023/07/01 12:35:17;;;;;;;;;;;22.40;68.30;;;;;;5011925;28;93687;-42
2023/07/01 12:37:44;;;;;;;;;;;22.50;68.30;;;;;;5016243;28;93175;-44
2023/07/01 12:40:11;;;;;;;;;;;22.40;68.20;;;;;;5012575;28;92258;-45
2023/07/01 12:42:37;;;;;;;;;;;22.50;68.30;;;;;;5016519;28;92505;-42
2023/07/01 12:45:03;;;;;;;;;;;22.50;68.30;;;;;;5011664;28;94131;-42
2023/07/01 12:47:28;;;;;;;;;;;22.50;68.30;;;;;;5015458;28;92019;-43
2023/07/01 12:49:54;;;;;;;;;;;22.50;68.20;;;;;;5016026;28;92466;-43
2023/07/01 12:52:21;;;;;;;;;;;22.60;68.20;;;;;;5011963;28;94111;-43
2023/07/01 12:54:46;;;;;;;;;;;22.60;68.30;;;;;;5015585;28;92844;-44
2023/07/01 12:57:12;;;;;;;;;;;22.60;68.20;;;;;;5012637;28;93212;-42
2023/07/01 12:59:38;;;;;;;;;;;22.70;68.20;;;;;;5015003;28;92212;-43
2023/07/01 13:02:04;;;;;;;;;;;22.70;68.10;;;;;;5014600;28;92575;-43
2023/07/01 13:04:29;;;;;;;;;;;22.70;68.20;;;;;;5013602;28;92819;-43
2023/07/01 13:06:55;;;;;;;;;;;22.70;68.10;;;;;;5009515;28;92161;-44
2023/07/01 13:09:38;;;;;;;;;;;22.80;68.20;;;;;;5010183;28;93029;-43
2023/07/01 13:12:03;;;;;;;;;;;22.80;68.20;;;;;;5007918;28;93108;-43
2023/07/01 13:14:30;;;;;;;;;;;22.80;68.20;;;;;;5012648;28;93490;-43
2023/07/01 13:16:56;;;;;;;;;;;22.80;68.20;;;;;;5008474;28;94224;-45
2023/07/01 13:19:21;;;;;;;;;;;22.90;68.20;;;;;;5012363;28;92202;-43
2023/07/01 13:21:47;;;;;;;;;;;22.90;68.20;;;;;;5009967;28;92101;-43
2023/07/01 13:24:13;;;;;;;;;;;22.90;68.20;;;;;;5009078;28;92307;-43
2023/07/01 13:26:40;;;;;;;;;;;23.00;68.20;;;;;;5012184;28;91527;-43
2023/07/01 13:29:13;;;;;;;;;;;23.00;68.30;;;;;;5009800;28;92137;-43
2023/07/01 13:31:43;;;;;;;;;;;23.00;68.10;;;;;;5011723;28;94715;-43
2023/07/01 13:34:09;;;;;;;;;;;23.10;68.10;;;;;;5007733;28;93642;-43
2023/07/01 13:36:39;;;;;;;;;;;23.10;68.00;;;;;;5008590;28;93062;-43
2023/07/01 13:39:08;;;;;;;;;;;23.10;68.10;;;;;;5005534;28;92070;-43
2023/07/01 13:41:34;;;;;;;;;;;23.20;68.00;;;;;;5011054;28;93097;-43
2023/07/01 13:44:13;;;;;;;;;;;23.20;68.00;;;;;;5008630;28;93321;-44
2023/07/01 13:46:39;;;;;;;;;;;23.30;67.90;;;;;;5010325;28;92011;-44
2023/07/01 13:49:05;;;;;;;;;;;23.30;68.00;;;;;;5010799;28;92631;-43
2023/07/01 13:51:40;;;;;;;;;;;23.40;68.00;;;;;;5007852;28;92356;-45
2023/07/01 13:54:08;;;;;;;;;;;23.40;67.90;;;;;;5011501;28;92120;-43
2023/07/01 13:56:34;;;;;;;;;;;23.40;67.90;;;;;;5011673;28;92289;-44
2023/07/01 13:59:00;;;;;;;;;;;23.40;67.80;;;;;;5010625;28;93229;-44
2023/07/01 14:01:25;;;;;;;;;;;23.50;68.00;;;;;;5009634;28;93360;-43
2023/07/01 14:03:53;;;;;;;;;;;23.50;67.90;;;;;;5010348;28;92354;-42
2023/07/01 14:06:19;;;;;;;;;;;23.50;67.80;;;;;;5007302;28;92243;-43
2023/07/01 14:08:45;;;;;;;;;;;23.60;68.00;;;;;;5009706;28;92557;-43
2023/07/01 14:11:14;;;;;;;;;;;23.60;68.00;;;;;;5009968;28;93517;-44
2023/07/01 14:13:40;;;;;;;;;;;23.60;68.00;;;;;;5008721;28;92130;-43